UTAM

Mary Airport

Mary, Turkmenistan
TAF UTAM 182230Z 1900/1924 02014KT 3000 BR BKN010 SCT020CB 530007 TEMPO 1900/1904 33012KT 1000 BR -RASN OVC003 PROB30 TEMPO 1900/1904 0600 FG VV002 BECMG 1905/1906 06012G22KT 5000 BKN020 BECMG 1913/1915 09012KT
Issued Valid From Valid To
Jan-18 @ 22:30 UTC
(4 hours ago)
Jan-19 @ 00:00 UTC
(2 hours ago)
Jan-20 @ 00:00 UTC
(in 22 hours)
Jan-19 @ 00:00 to Jan-19 @ 05:00
TAF UTAM 182230Z 1900/1924 02014KT 3000 BR BKN010 SCT020CB 530007
Wind Visibility Clouds Conditions Turbulence
20° at 14 knots 2,993 meters
  • Broken at 1,000' AGL
  • Scattered at 2,000' AGL
  • Mist
Frequent moderate clear air turbulence expected at the surface extending to 7,000' AGL
Temporary Jan-19 @ 00:00 to Jan-19 @ 04:00
TEMPO 1900/1904 33012KT 1000 BR -RASN OVC003
Wind Visibility Clouds Conditions
330° at 12 knots 998 meters
  • Overcast at 300' AGL
  • Mist
  • Light Rain
  • Light Snow
Temporary  (Probability 30%) Jan-19 @ 00:00 to Jan-19 @ 04:00
PROB30 TEMPO 1900/1904 0600 FG VV002
Visibility Clouds Conditions
595 meters
  • Vertical visibility at 200' AGL
  • Fog
Becoming Jan-19 @ 05:00 to Jan-19 @ 13:00
BECMG 1905/1906 06012G22KT 5000 BKN020
Wind Visibility Clouds Conditions
60° at 12 knots
 Gusting to 22 knots
5,005 meters
  • Broken at 2,000' AGL
  • Mist
Becoming Jan-19 @ 13:00 to Jan-20 @ 00:00
BECMG 1913/1915 09012KT
Wind Visibility Clouds Conditions
90° at 12 knots 5,005 meters
  • Broken at 2,000' AGL
  • Mist
TAF UTAM 182230Z 1900/1924 02014KT 3000 BR BKN010 SCT020CB 530007 TEMPO 1900/1904 33012KT 1000 BR -RASN OVC003 PROB30 TEMPO 1900/1904 0600 FG VV002 BECMG 1905/1906 06012G22KT 5000 BKN020 BECMG 1913/1915 09012KT
Issued Jan-18 @ 22:30 UTC
(4 hours ago)
Valid From Jan-19 @ 00:00 UTC
(2 hours ago)
Valid To Jan-20 @ 00:00 UTC
(in 22 hours)
Jan-19 @ 00:00 - Jan-19 @ 05:00
Wind Visibility
20° at 14 knots 2,993 meters
Clouds
  • Broken at 1,000' AGL
  • Scattered at 2,000' AGL
Conditions
  • Mist
Temporary Jan-19 @ 00:00 - Jan-19 @ 04:00
Wind Visibility
330° at 12 knots 998 meters
Clouds
  • Overcast at 300' AGL
Conditions
  • Mist
  • Light Rain
  • Light Snow
Probability 30% Temporary Jan-19 @ 00:00 - Jan-19 @ 04:00
Clouds
  • Vertical visibility at 200' AGL
Conditions
  • Fog
Becoming Jan-19 @ 05:00 - Jan-19 @ 13:00
Wind Visibility
60° at 12 knots
 Gusting to 22 knots
5,005 meters
Clouds
  • Broken at 2,000' AGL
Conditions
  • Mist
Becoming Jan-19 @ 13:00 - Jan-20 @ 00:00
Wind Visibility
90° at 12 knots 5,005 meters
Clouds
  • Broken at 2,000' AGL
Conditions
  • Mist